createdAt,value
2023-07-31T00:02:20.086Z,9.00
2023-07-31T00:07:29.750Z,8.20
2023-07-31T00:12:40.624Z,7.30
2023-07-31T00:17:50.283Z,8.40
2023-07-31T00:22:59.896Z,9.10
2023-07-31T00:28:10.207Z,8.30
2023-07-31T00:33:19.712Z,8.50
2023-07-31T00:38:29.252Z,8.90
2023-07-31T00:43:38.768Z,8.20
2023-07-31T00:48:49.155Z,10.90
2023-07-31T00:54:00.172Z,8.50
2023-07-31T00:59:10.043Z,10.00
2023-07-31T01:04:20.461Z,9.50
2023-07-31T01:09:43.036Z,8.50
2023-07-31T01:15:12.506Z,8.70
2023-07-31T01:20:26.325Z,9.30
2023-07-31T01:26:07.884Z,8.40
2023-07-31T01:31:22.869Z,9.10
2023-07-31T01:36:33.578Z,9.40
2023-07-31T01:41:43.079Z,9.60
2023-07-31T01:46:52.761Z,11.50
2023-07-31T01:52:02.356Z,13.20
2023-07-31T01:57:12.680Z,11.00
2023-07-31T02:02:22.315Z,13.50
2023-07-31T02:07:31.937Z,11.40
2023-07-31T02:12:41.459Z,15.50
2023-07-31T02:17:51.103Z,14.10
2023-07-31T02:23:00.908Z,27.10
2023-07-31T02:28:10.685Z,18.30
2023-07-31T02:33:21.317Z,12.50
2023-07-31T02:38:31.312Z,10.20
2023-07-31T02:43:41.101Z,14.60
2023-07-31T02:48:50.651Z,18.80
2023-07-31T02:54:00.271Z,22.60
2023-07-31T02:59:09.885Z,13.50
2023-07-31T03:04:19.822Z,14.20
2023-07-31T03:09:29.566Z,9.40
2023-07-31T03:14:39.112Z,12.10
2023-07-31T03:19:48.757Z,8.90
2023-07-31T03:24:58.873Z,7.50
2023-07-31T03:30:10.166Z,8.90
2023-07-31T03:35:20.558Z,6.90
2023-07-31T03:40:30.523Z,6.60
2023-07-31T03:45:40.151Z,8.60
2023-07-31T03:50:49.771Z,6.90
2023-07-31T03:55:59.352Z,8.10
2023-07-31T04:01:09.444Z,8.20
2023-07-31T04:06:19.527Z,7.90
2023-07-31T04:11:29.125Z,7.80
2023-07-31T04:16:39.088Z,5.70
2023-07-31T04:21:48.913Z,6.40
2023-07-31T04:26:58.673Z,6.40
2023-07-31T04:32:09.422Z,5.70
2023-07-31T04:37:19.312Z,8.30
2023-07-31T04:42:28.865Z,5.20
2023-07-31T04:47:38.451Z,6.30
2023-07-31T04:52:47.966Z,5.70
2023-07-31T04:57:57.666Z,5.80
2023-07-31T05:03:08.366Z,5.70
2023-07-31T05:08:18.945Z,5.50
2023-07-31T05:13:29.091Z,5.20
2023-07-31T05:18:38.735Z,5.90
2023-07-31T05:23:49.195Z,4.80
2023-07-31T05:28:59.710Z,7.90
2023-07-31T05:34:09.391Z,5.40
2023-07-31T05:39:20.922Z,7.10
2023-07-31T05:44:30.691Z,5.90
2023-07-31T05:49:40.536Z,5.90
2023-07-31T05:54:50.406Z,5.90
2023-07-31T06:00:00.069Z,6.10
2023-07-31T06:05:11.559Z,7.30
2023-07-31T06:10:22.728Z,7.50
2023-07-31T06:15:33.164Z,7.30
2023-07-31T06:20:43.608Z,6.40
2023-07-31T06:25:53.585Z,7.70
2023-07-31T06:31:03.902Z,4.90
2023-07-31T06:36:13.862Z,5.80
2023-07-31T06:41:23.412Z,4.50
2023-07-31T06:46:33.366Z,7.50
2023-07-31T06:51:42.924Z,6.60
2023-07-31T06:56:54.167Z,4.50
2023-07-31T07:02:06.630Z,6.10
2023-07-31T07:07:19.149Z,6.10
2023-07-31T07:12:29.969Z,3.90
2023-07-31T07:17:40.066Z,5.50
2023-07-31T07:22:49.918Z,5.50
2023-07-31T07:27:59.782Z,6.40
2023-07-31T07:33:09.667Z,8.20
2023-07-31T07:38:20.642Z,4.60
2023-07-31T07:43:30.286Z,5.60
2023-07-31T07:48:39.911Z,3.70
2023-07-31T07:53:50.162Z,5.30
2023-07-31T07:59:00.216Z,5.70
2023-07-31T08:04:10.123Z,5.60
2023-07-31T08:09:20.022Z,4.60
2023-07-31T08:14:32.044Z,6.70
2023-07-31T08:19:43.487Z,4.60
2023-07-31T08:24:53.330Z,6.00
2023-07-31T08:30:03.053Z,5.60
2023-07-31T08:35:13.148Z,4.40
2023-07-31T08:40:23.891Z,6.20
2023-07-31T08:45:34.886Z,4.10
2023-07-31T08:50:44.816Z,5.90
2023-07-31T08:55:57.367Z,4.50
2023-07-31T09:01:09.816Z,4.00
2023-07-31T09:06:21.294Z,4.80
2023-07-31T09:11:31.692Z,7.10
2023-07-31T09:16:56.369Z,5.20
2023-07-31T09:22:06.315Z,4.30
2023-07-31T09:27:16.017Z,5.20
2023-07-31T09:32:29.436Z,3.70
2023-07-31T09:37:39.558Z,4.80
2023-07-31T09:42:51.555Z,6.60
2023-07-31T09:48:01.552Z,5.30
2023-07-31T09:53:12.560Z,4.50
2023-07-31T09:58:26.208Z,4.60
2023-07-31T10:03:38.075Z,4.50
2023-07-31T10:08:54.430Z,4.10
2023-07-31T10:14:04.382Z,5.00
2023-07-31T10:19:16.902Z,3.70
2023-07-31T10:24:28.409Z,4.30
2023-07-31T10:29:39.653Z,5.70
2023-07-31T10:34:50.485Z,4.70
2023-07-31T10:40:09.128Z,3.60
2023-07-31T10:45:28.826Z,4.60
2023-07-31T10:50:49.964Z,6.20
2023-07-31T10:56:04.703Z,4.80
2023-07-31T11:01:14.391Z,3.80
2023-07-31T11:06:24.107Z,4.80
2023-07-31T11:11:35.820Z,3.90
2023-07-31T11:16:47.798Z,4.70
2023-07-31T11:21:58.992Z,4.70
2023-07-31T11:27:13.940Z,6.20
2023-07-31T11:32:25.958Z,3.90
2023-07-31T11:37:47.264Z,4.30
2023-07-31T11:42:57.305Z,5.20
2023-07-31T11:48:07.800Z,4.50
2023-07-31T11:53:19.664Z,4.60
2023-07-31T11:58:31.626Z,4.10
2023-07-31T12:03:44.080Z,4.30
2023-07-31T12:08:54.258Z,5.90
2023-07-31T12:14:07.200Z,7.30
2023-07-31T12:19:16.793Z,4.80
2023-07-31T12:24:28.478Z,6.50
2023-07-31T12:29:43.142Z,4.70
2023-07-31T12:34:53.221Z,4.90
2023-07-31T12:40:09.118Z,5.80
2023-07-31T12:45:19.107Z,8.40
2023-07-31T12:50:29.005Z,5.20
2023-07-31T12:55:39.097Z,8.80
2023-07-31T13:00:48.976Z,11.80
2023-07-31T13:05:58.947Z,7.20
2023-07-31T13:11:08.529Z,6.30
2023-07-31T13:16:18.045Z,5.80
2023-07-31T13:21:29.092Z,6.40
2023-07-31T13:26:39.159Z,6.80
2023-07-31T13:31:49.020Z,5.80
2023-07-31T13:37:00.434Z,5.00
2023-07-31T13:42:13.659Z,7.80
2023-07-31T13:47:23.402Z,11.20
2023-07-31T13:52:33.156Z,6.80
2023-07-31T13:57:43.600Z,10.70
2023-07-31T14:02:53.341Z,7.60
2023-07-31T14:08:03.550Z,6.70
2023-07-31T14:13:13.198Z,7.00
2023-07-31T14:18:24.039Z,5.50
2023-07-31T14:23:34.212Z,6.20
2023-07-31T14:28:43.893Z,5.80
2023-07-31T14:33:54.435Z,6.50
2023-07-31T14:39:05.844Z,7.60
2023-07-31T14:44:15.884Z,5.00
2023-07-31T14:49:25.572Z,7.30
2023-07-31T14:54:35.192Z,5.20
2023-07-31T14:59:44.974Z,4.50
2023-07-31T15:04:54.649Z,4.50
2023-07-31T15:10:05.156Z,6.70
2023-07-31T15:15:15.335Z,8.30
2023-07-31T15:20:25.192Z,5.80
2023-07-31T15:25:34.816Z,9.00
2023-07-31T15:30:45.393Z,5.40
2023-07-31T15:35:56.947Z,6.70
2023-07-31T15:41:07.136Z,8.60
2023-07-31T15:46:18.031Z,11.90
2023-07-31T15:51:28.621Z,6.90
2023-07-31T15:56:38.773Z,5.10
2023-07-31T16:01:49.060Z,5.90
2023-07-31T16:06:59.303Z,5.60
2023-07-31T16:12:11.497Z,6.20
2023-07-31T16:17:21.457Z,6.10
2023-07-31T16:22:31.129Z,5.70
2023-07-31T16:27:40.910Z,4.60
2023-07-31T16:32:51.335Z,4.30
2023-07-31T16:38:01.133Z,5.10
2023-07-31T16:43:10.904Z,8.50
2023-07-31T16:48:20.578Z,5.90
2023-07-31T16:53:30.071Z,7.10
2023-07-31T16:58:39.750Z,9.50
2023-07-31T17:03:49.359Z,12.20
2023-07-31T17:08:59.212Z,8.90
2023-07-31T17:14:09.077Z,5.60
2023-07-31T17:19:18.879Z,4.80
2023-07-31T17:24:28.645Z,3.70
2023-07-31T17:29:38.588Z,5.80
2023-07-31T17:34:48.752Z,3.60
2023-07-31T17:39:58.534Z,3.90
2023-07-31T17:45:11.064Z,4.00
2023-07-31T17:50:21.551Z,4.20
2023-07-31T17:55:31.934Z,5.70
2023-07-31T18:00:41.987Z,3.90
2023-07-31T18:05:52.054Z,6.00
2023-07-31T18:11:01.566Z,5.00
2023-07-31T18:16:11.619Z,3.70
2023-07-31T18:21:21.630Z,5.20
2023-07-31T18:26:31.505Z,4.40
2023-07-31T18:31:41.389Z,4.30
2023-07-31T18:36:51.710Z,4.60
2023-07-31T18:42:01.294Z,6.20
2023-07-31T18:47:12.081Z,4.90
2023-07-31T18:52:22.045Z,5.20
2023-07-31T18:57:31.706Z,5.10
2023-07-31T19:02:42.109Z,5.00
2023-07-31T19:07:51.873Z,5.20
2023-07-31T19:13:01.606Z,6.00
2023-07-31T19:18:11.318Z,4.70
2023-07-31T19:23:20.944Z,4.50
2023-07-31T19:28:31.403Z,5.40
2023-07-31T19:33:41.187Z,5.40
2023-07-31T19:38:50.834Z,6.60
2023-07-31T19:44:00.780Z,6.10
2023-07-31T19:49:10.628Z,4.70
2023-07-31T19:54:21.250Z,7.80
2023-07-31T19:59:30.816Z,6.00
2023-07-31T20:04:40.823Z,5.90
2023-07-31T20:09:52.299Z,7.30
2023-07-31T20:15:09.220Z,5.80
2023-07-31T20:20:19.320Z,5.80
2023-07-31T20:25:29.451Z,7.30
2023-07-31T20:30:39.226Z,7.40
2023-07-31T20:35:48.852Z,5.00
2023-07-31T20:40:58.398Z,5.30
2023-07-31T20:46:07.993Z,8.60
2023-07-31T20:51:17.933Z,5.00
2023-07-31T20:56:27.736Z,6.00
2023-07-31T21:01:37.643Z,6.10
2023-07-31T21:06:47.826Z,5.90
2023-07-31T21:11:57.575Z,7.40
2023-07-31T21:17:08.720Z,5.60
2023-07-31T21:22:18.374Z,5.30
2023-07-31T21:27:28.219Z,5.40
2023-07-31T21:32:37.809Z,7.40
2023-07-31T21:37:49.404Z,5.70
2023-07-31T21:42:58.988Z,6.30
2023-07-31T21:48:09.594Z,5.50
2023-07-31T21:53:19.249Z,7.30
2023-07-31T21:58:29.157Z,6.30
2023-07-31T22:03:39.710Z,5.40
2023-07-31T22:08:49.701Z,6.10
2023-07-31T22:13:59.534Z,4.50
2023-07-31T22:19:09.192Z,5.10
2023-07-31T22:24:18.770Z,5.90
2023-07-31T22:29:28.657Z,5.50
2023-07-31T22:34:38.518Z,5.50
2023-07-31T22:39:48.130Z,4.80
2023-07-31T22:44:57.765Z,5.20
2023-07-31T22:50:09.164Z,5.30
2023-07-31T22:55:19.204Z,4.70
2023-07-31T23:00:29.349Z,5.30
2023-07-31T23:05:39.348Z,6.30
2023-07-31T23:10:53.188Z,5.70
2023-07-31T23:16:02.836Z,5.10
2023-07-31T23:21:13.608Z,5.50
2023-07-31T23:26:23.458Z,4.90
2023-07-31T23:31:35.458Z,5.00
2023-07-31T23:36:47.403Z,5.80
2023-07-31T23:41:57.546Z,5.70
2023-07-31T23:47:09.806Z,6.40
2023-07-31T23:52:20.054Z,5.80
2023-07-31T23:57:31.866Z,6.40
